createdAt,value
2023-01-13T00:02:23.544Z,12.20
2023-01-13T00:05:26.834Z,11.73
2023-01-13T00:08:29.535Z,11.45
2023-01-13T00:11:32.469Z,11.47
2023-01-13T00:14:35.845Z,12.30
2023-01-13T00:17:39.199Z,11.32
2023-01-13T00:20:42.060Z,11.77
2023-01-13T00:23:45.181Z,11.57
2023-01-13T00:26:47.737Z,11.83
2023-01-13T00:29:50.970Z,11.53
2023-01-13T00:32:54.332Z,10.80
2023-01-13T00:35:57.792Z,11.25
2023-01-13T00:39:00.636Z,11.68
2023-01-13T00:42:22.413Z,11.90
2023-01-13T00:45:25.032Z,11.17
2023-01-13T00:48:28.818Z,12.75
2023-01-13T00:51:31.471Z,11.90
2023-01-13T00:54:34.310Z,11.77
2023-01-13T00:57:36.915Z,12.70
2023-01-13T01:00:39.753Z,12.67
2023-01-13T01:03:42.580Z,12.30
2023-01-13T01:06:45.517Z,11.15
2023-01-13T01:09:49.632Z,11.95
2023-01-13T01:12:52.663Z,11.87
2023-01-13T01:15:55.207Z,11.47
2023-01-13T01:18:58.359Z,11.63
2023-01-13T01:22:00.937Z,11.45
2023-01-13T01:25:03.956Z,11.70
2023-01-13T01:28:06.642Z,12.17
2023-01-13T01:31:15.140Z,11.97
2023-01-13T01:34:17.814Z,12.10
2023-01-13T01:37:20.727Z,11.10
2023-01-13T01:40:24.197Z,11.45
2023-01-13T01:44:04.120Z,11.63
2023-01-13T01:47:06.971Z,11.10
2023-01-13T01:50:10.495Z,11.68
2023-01-13T01:53:17.793Z,11.10
2023-01-13T01:56:21.123Z,10.32
2023-01-13T01:59:24.095Z,10.70
2023-01-13T02:02:28.935Z,11.20
2023-01-13T02:05:32.013Z,12.02
2023-01-13T02:08:36.764Z,11.57
2023-01-13T02:11:58.404Z,10.70
2023-01-13T02:15:04.913Z,10.40
2023-01-13T02:18:42.931Z,10.93
2023-01-13T02:22:23.681Z,11.23
2023-01-13T02:25:38.599Z,14.50
2023-01-13T02:29:38.022Z,12.20
2023-01-13T02:32:50.129Z,14.17
2023-01-13T02:35:55.663Z,12.00
2023-01-13T02:39:05.026Z,10.20
2023-01-13T02:42:33.111Z,10.27
2023-01-13T02:45:40.089Z,10.05
2023-01-13T02:48:44.867Z,9.87
2023-01-13T02:51:48.784Z,9.63
2023-01-13T02:54:55.433Z,10.90
2023-01-13T02:58:00.159Z,10.82
2023-01-13T03:01:03.246Z,10.77
2023-01-13T03:04:14.216Z,10.03
2023-01-13T03:07:35.107Z,10.60
2023-01-13T03:10:50.118Z,10.10
2023-01-13T03:14:14.739Z,14.52
2023-01-13T03:17:17.912Z,10.68
2023-01-13T03:20:28.720Z,10.70
2023-01-13T03:23:33.222Z,11.03
2023-01-13T03:26:41.099Z,13.10
2023-01-13T03:29:56.570Z,11.10
2023-01-13T03:33:05.561Z,10.98
2023-01-13T03:36:10.811Z,11.27
2023-01-13T03:39:17.325Z,10.57
2023-01-13T03:42:23.850Z,11.32
2023-01-13T03:45:26.884Z,10.63
2023-01-13T03:48:31.408Z,10.27
2023-01-13T03:51:35.135Z,10.97
2023-01-13T03:54:46.920Z,11.27
2023-01-13T03:57:59.883Z,11.38
2023-01-13T04:01:13.266Z,10.95
2023-01-13T04:04:20.808Z,12.37
2023-01-13T04:07:38.509Z,10.63
2023-01-13T04:10:48.875Z,10.10
2023-01-13T04:13:53.347Z,11.77
2023-01-13T04:16:56.781Z,10.68
2023-01-13T04:19:59.425Z,10.60
2023-01-13T04:23:02.439Z,11.37
2023-01-13T04:26:05.046Z,11.67
2023-01-13T04:29:08.415Z,12.13
2023-01-13T04:32:11.267Z,11.68
2023-01-13T04:35:14.209Z,11.60
2023-01-13T04:38:18.850Z,10.23
2023-01-13T04:41:21.738Z,12.90
2023-01-13T04:44:24.369Z,11.27
2023-01-13T04:47:27.287Z,10.40
2023-01-13T04:50:30.486Z,10.20
2023-01-13T04:53:33.269Z,11.57
2023-01-13T04:56:35.925Z,13.20
2023-01-13T04:59:38.993Z,19.33
2023-01-13T05:02:41.744Z,17.17
2023-01-13T05:05:44.809Z,16.40
2023-01-13T05:08:47.395Z,14.87
2023-01-13T05:12:08.882Z,11.97
2023-01-13T05:15:33.502Z,11.48
2023-01-13T05:18:36.771Z,12.43
2023-01-13T05:21:58.434Z,9.43
2023-01-13T05:25:20.184Z,11.57
2023-01-13T05:28:24.347Z,10.60
2023-01-13T05:31:27.234Z,10.23
2023-01-13T05:34:29.864Z,9.55
2023-01-13T05:37:33.093Z,9.13
2023-01-13T05:40:57.780Z,9.90
2023-01-13T05:44:01.972Z,10.70
2023-01-13T05:47:04.599Z,11.60
2023-01-13T05:50:08.053Z,12.93
2023-01-13T05:53:11.007Z,9.57
2023-01-13T05:56:13.931Z,10.33
2023-01-13T05:59:16.663Z,11.33
2023-01-13T06:02:19.595Z,12.15
2023-01-13T06:05:22.813Z,11.48
2023-01-13T06:08:25.911Z,12.07
2023-01-13T06:11:29.145Z,13.80
2023-01-13T06:14:41.196Z,16.00
2023-01-13T06:17:44.380Z,14.30
2023-01-13T06:20:48.050Z,13.18
2023-01-13T06:23:51.080Z,12.95
2023-01-13T06:26:53.697Z,11.10
2023-01-13T06:29:57.253Z,11.57
2023-01-13T06:33:02.242Z,10.65
2023-01-13T06:36:11.224Z,10.48
2023-01-13T06:39:20.437Z,11.00
2023-01-13T06:42:42.604Z,10.90
2023-01-13T06:45:55.958Z,10.17
2023-01-13T06:48:59.264Z,12.23
2023-01-13T06:52:02.120Z,12.35
2023-01-13T06:55:05.741Z,12.63
2023-01-13T06:58:08.523Z,13.37
2023-01-13T07:01:11.921Z,12.53
2023-01-13T07:04:14.786Z,12.30
2023-01-13T07:07:17.763Z,12.45
2023-01-13T07:10:22.564Z,11.77
2023-01-13T07:13:44.359Z,10.80
2023-01-13T07:16:47.185Z,10.80
2023-01-13T07:19:50.630Z,13.10
2023-01-13T07:22:55.000Z,11.88
2023-01-13T07:25:58.495Z,11.75
2023-01-13T07:29:01.452Z,13.73
2023-01-13T07:32:05.708Z,11.63
2023-01-13T07:35:08.412Z,13.23
2023-01-13T07:41:34.394Z,11.88
2023-01-13T07:44:37.883Z,12.53
2023-01-13T07:47:40.951Z,12.50
2023-01-13T07:50:44.345Z,12.68
2023-01-13T07:53:46.984Z,13.25
2023-01-13T07:56:50.007Z,13.25
2023-01-13T07:59:52.803Z,13.10
2023-01-13T08:02:56.063Z,13.10
2023-01-13T08:06:01.583Z,12.95
2023-01-13T08:12:28.109Z,13.60
2023-01-13T08:15:34.985Z,13.40
2023-01-13T08:18:38.893Z,11.77
2023-01-13T08:21:41.599Z,12.48
2023-01-13T08:24:44.569Z,12.50
2023-01-13T08:27:49.707Z,11.88
2023-01-13T08:30:54.279Z,12.80
2023-01-13T08:33:56.925Z,12.57
2023-01-13T08:36:59.794Z,12.65
2023-01-13T08:40:05.360Z,11.60
2023-01-13T08:43:09.843Z,12.15
2023-01-13T08:46:14.974Z,11.17
2023-01-13T08:49:19.321Z,9.77
2023-01-13T08:52:22.630Z,11.55
2023-01-13T08:55:25.849Z,11.00
2023-01-13T08:58:30.214Z,9.88
2023-01-13T09:01:34.176Z,11.20
2023-01-13T09:04:37.069Z,10.33
2023-01-13T09:07:40.003Z,10.00
2023-01-13T09:10:42.778Z,11.93
2023-01-13T09:13:45.708Z,9.75
2023-01-13T09:16:48.429Z,10.60
2023-01-13T09:19:51.486Z,9.60
2023-01-13T09:22:54.182Z,10.52
2023-01-13T09:25:57.272Z,9.35
2023-01-13T09:29:01.687Z,9.35
2023-01-13T09:32:05.358Z,9.13
2023-01-13T09:35:09.767Z,9.47
2023-01-13T09:38:12.739Z,8.73
2023-01-13T09:41:46.269Z,8.60
2023-01-13T09:44:55.450Z,8.70
2023-01-13T09:48:16.400Z,8.13
2023-01-13T09:51:27.412Z,6.90
2023-01-13T09:54:45.669Z,7.87
2023-01-13T09:57:48.839Z,9.50
2023-01-13T10:01:06.894Z,7.75
2023-01-13T10:04:15.010Z,7.47
2023-01-13T10:07:18.298Z,6.73
2023-01-13T10:10:46.511Z,5.60
2023-01-13T10:13:59.766Z,6.82
2023-01-13T10:17:28.669Z,7.07
2023-01-13T10:21:02.851Z,6.93
2023-01-13T10:24:15.592Z,6.43
2023-01-13T10:27:35.335Z,6.22
2023-01-13T10:30:46.423Z,4.80
2023-01-13T10:33:49.725Z,5.62
2023-01-13T10:36:59.504Z,5.47
2023-01-13T10:40:07.300Z,7.43
2023-01-13T10:43:12.278Z,5.37
2023-01-13T10:46:16.468Z,5.70
2023-01-13T10:49:28.138Z,5.65
2023-01-13T10:52:33.456Z,5.20
2023-01-13T10:56:16.585Z,6.40
2023-01-13T10:59:19.957Z,6.97
2023-01-13T11:02:29.432Z,5.97
2023-01-13T11:05:32.525Z,5.57
2023-01-13T11:08:42.990Z,5.87
2023-01-13T11:11:47.526Z,5.37
2023-01-13T11:14:51.451Z,5.18
2023-01-13T11:18:25.740Z,4.03
2023-01-13T11:21:35.297Z,4.70
2023-01-13T11:25:30.575Z,4.60
2023-01-13T11:28:41.431Z,4.30
2023-01-13T11:31:49.671Z,6.10
2023-01-13T11:34:57.461Z,5.65
2023-01-13T11:38:07.433Z,5.97
2023-01-13T11:41:39.095Z,3.80
2023-01-13T11:44:46.784Z,5.70
2023-01-13T11:47:51.908Z,5.78
2023-01-13T11:51:01.095Z,4.90
2023-01-13T11:54:15.101Z,5.68
2023-01-13T11:57:43.194Z,4.90
2023-01-13T12:01:07.258Z,4.75
2023-01-13T12:04:21.652Z,5.10
2023-01-13T12:07:55.592Z,5.07
2023-01-13T12:11:05.485Z,4.75
2023-01-13T12:14:18.290Z,5.43
2023-01-13T12:17:38.648Z,4.87
2023-01-13T12:21:01.053Z,5.18
2023-01-13T12:24:24.881Z,4.72
2023-01-13T12:27:49.266Z,5.70
2023-01-13T12:30:56.927Z,5.50
2023-01-13T12:34:27.677Z,6.22
2023-01-13T12:37:39.805Z,9.07
2023-01-13T12:41:01.611Z,5.00
2023-01-13T12:44:20.572Z,4.47
2023-01-13T12:47:43.631Z,7.20
2023-01-13T12:51:02.721Z,7.37
2023-01-13T12:54:37.889Z,6.00
2023-01-13T12:57:56.042Z,6.28
2023-01-13T13:01:01.604Z,6.15
2023-01-13T13:04:09.629Z,7.97
2023-01-13T13:07:18.909Z,7.90
2023-01-13T13:10:37.969Z,7.20
2023-01-13T13:13:45.472Z,6.25
2023-01-13T13:16:51.051Z,6.03
2023-01-13T13:19:56.034Z,6.10
2023-01-13T13:22:59.027Z,5.85
2023-01-13T13:26:05.804Z,5.80
2023-01-13T13:29:50.305Z,5.80
2023-01-13T13:33:22.016Z,8.10
2023-01-13T13:36:54.061Z,6.90
2023-01-13T13:40:14.963Z,6.85
2023-01-13T13:43:38.342Z,6.50
2023-01-13T13:46:49.250Z,6.68
2023-01-13T13:49:56.765Z,6.53
2023-01-13T13:53:05.343Z,6.13
2023-01-13T13:56:19.140Z,6.32
2023-01-13T13:59:24.118Z,6.85
2023-01-13T14:02:30.321Z,7.45
2023-01-13T14:05:35.167Z,11.35
2023-01-13T14:08:38.956Z,6.30
2023-01-13T14:11:41.962Z,7.40
2023-01-13T14:14:45.905Z,17.60
2023-01-13T14:17:48.819Z,10.50
2023-01-13T14:20:54.407Z,9.75
2023-01-13T14:24:10.733Z,9.17
2023-01-13T14:27:18.559Z,8.98
2023-01-13T14:30:26.273Z,10.63
2023-01-13T14:33:41.431Z,11.80
2023-01-13T14:36:47.895Z,12.48
2023-01-13T14:39:50.763Z,14.77
2023-01-13T14:43:14.898Z,13.68
2023-01-13T14:46:18.034Z,14.30
2023-01-13T14:49:46.918Z,17.15
2023-01-13T14:52:54.707Z,12.88
2023-01-13T14:55:58.760Z,12.93
2023-01-13T14:59:34.007Z,11.95
2023-01-13T15:02:41.540Z,11.80
2023-01-13T15:05:50.049Z,11.00
2023-01-13T15:08:53.091Z,10.55
2023-01-13T15:11:58.810Z,13.27
2023-01-13T15:15:23.636Z,13.20
2023-01-13T15:18:27.290Z,14.93
2023-01-13T15:21:31.196Z,18.20
2023-01-13T15:24:33.880Z,20.30
2023-01-13T15:27:38.462Z,17.57
2023-01-13T15:30:42.848Z,14.35
2023-01-13T15:33:45.802Z,17.83
2023-01-13T15:36:48.420Z,19.77
2023-01-13T15:39:51.483Z,19.12
2023-01-13T15:43:12.466Z,37.37
2023-01-13T15:46:36.748Z,16.70
2023-01-13T15:49:45.568Z,9.02
2023-01-13T15:52:48.360Z,7.37
2023-01-13T15:55:53.140Z,6.70
2023-01-13T15:58:56.086Z,6.60
2023-01-13T16:01:58.703Z,7.05
2023-01-13T16:05:01.998Z,8.25
2023-01-13T16:08:05.106Z,9.13
2023-01-13T16:11:10.650Z,7.75
2023-01-13T16:14:13.237Z,7.33
2023-01-13T16:17:21.803Z,7.55
2023-01-13T16:20:26.842Z,7.72
2023-01-13T16:23:29.736Z,13.00
2023-01-13T16:26:36.291Z,14.55
2023-01-13T16:29:39.443Z,14.57
2023-01-13T16:32:42.194Z,9.60
2023-01-13T16:36:10.554Z,10.43
2023-01-13T16:39:20.306Z,9.02
2023-01-13T16:42:23.194Z,7.37
2023-01-13T16:45:26.718Z,9.60
2023-01-13T16:48:29.614Z,6.00
2023-01-13T16:51:33.379Z,5.93
2023-01-13T16:54:36.313Z,5.32
2023-01-13T16:57:38.980Z,9.70
2023-01-13T17:00:41.855Z,7.53
2023-01-13T17:03:44.569Z,7.22
2023-01-13T17:06:58.075Z,7.30
2023-01-13T17:10:01.203Z,5.50
2023-01-13T17:13:14.740Z,5.57
2023-01-13T17:16:21.609Z,8.10
2023-01-13T17:19:25.651Z,3.92
2023-01-13T17:22:28.296Z,6.20
2023-01-13T17:25:31.058Z,4.30
2023-01-13T17:28:33.854Z,6.50
2023-01-13T17:31:36.702Z,5.07
2023-01-13T17:34:40.286Z,6.30
2023-01-13T17:37:43.130Z,9.32
2023-01-13T17:40:45.942Z,7.68
2023-01-13T17:43:48.821Z,10.20
2023-01-13T17:46:51.569Z,15.57
2023-01-13T17:49:54.728Z,12.52
2023-01-13T17:52:57.343Z,12.55
2023-01-13T17:56:00.102Z,11.82
2023-01-13T17:59:02.690Z,11.43
2023-01-13T18:02:05.676Z,12.20
2023-01-13T18:05:09.049Z,10.10
2023-01-13T18:08:11.521Z,10.98
2023-01-13T18:11:18.774Z,15.00
2023-01-13T18:14:22.835Z,14.35
2023-01-13T18:17:25.670Z,13.63
2023-01-13T18:20:48.842Z,10.23
2023-01-13T18:24:11.650Z,10.48
2023-01-13T18:27:19.224Z,10.35
2023-01-13T18:30:26.963Z,11.23
2023-01-13T18:33:29.576Z,10.97
2023-01-13T18:36:32.685Z,11.02
2023-01-13T18:39:37.466Z,12.63
2023-01-13T18:42:54.286Z,11.40
2023-01-13T18:45:57.052Z,10.88
2023-01-13T18:48:59.919Z,8.87
2023-01-13T18:52:02.855Z,7.18
2023-01-13T18:55:05.937Z,5.95
2023-01-13T18:58:08.523Z,16.87
2023-01-13T19:01:11.615Z,14.63
2023-01-13T19:04:15.969Z,18.20
2023-01-13T19:07:23.271Z,12.32
2023-01-13T19:10:31.789Z,14.20
2023-01-13T19:13:36.054Z,9.00
2023-01-13T19:16:38.887Z,9.30
2023-01-13T19:19:44.030Z,8.70
2023-01-13T19:22:54.061Z,12.27
2023-01-13T19:26:01.246Z,12.00
2023-01-13T19:29:04.047Z,8.63
2023-01-13T19:32:07.842Z,8.63
2023-01-13T19:35:13.114Z,8.57
2023-01-13T19:38:16.135Z,4.57
2023-01-13T19:41:37.372Z,11.12
2023-01-13T19:44:59.054Z,10.57
2023-01-13T19:48:02.534Z,9.45
2023-01-13T19:51:06.240Z,10.17
2023-01-13T19:54:09.323Z,9.32
2023-01-13T19:57:12.583Z,9.90
2023-01-13T20:00:20.490Z,9.30
2023-01-13T20:03:26.072Z,21.52
2023-01-13T20:06:32.734Z,13.53
2023-01-13T20:09:35.854Z,14.80
2023-01-13T20:12:39.014Z,20.88
2023-01-13T20:15:42.517Z,19.23
2023-01-13T20:18:49.812Z,17.40
2023-01-13T20:21:53.439Z,17.70
2023-01-13T20:24:56.744Z,17.75
2023-01-13T20:28:02.045Z,16.52
2023-01-13T20:31:11.547Z,15.00
2023-01-13T20:34:15.455Z,12.77
2023-01-13T20:37:18.190Z,11.83
2023-01-13T20:40:22.332Z,10.18
2023-01-13T20:43:24.865Z,9.23
2023-01-13T20:46:28.125Z,8.75
2023-01-13T20:49:31.050Z,8.52
2023-01-13T20:52:34.071Z,8.70
2023-01-13T20:55:39.720Z,9.48
2023-01-13T20:58:43.997Z,8.98
2023-01-13T21:01:46.761Z,8.48
2023-01-13T21:04:49.853Z,9.70
2023-01-13T21:07:52.362Z,8.43
2023-01-13T21:11:04.590Z,9.98
2023-01-13T21:14:34.298Z,9.77
2023-01-13T21:17:56.024Z,8.60
2023-01-13T21:21:11.745Z,14.93
2023-01-13T21:24:14.734Z,13.90
2023-01-13T21:27:17.285Z,13.88
2023-01-13T21:30:20.865Z,15.55
2023-01-13T21:33:23.354Z,13.88
2023-01-13T21:36:27.565Z,15.02
2023-01-13T21:39:30.148Z,21.13
2023-01-13T21:42:51.793Z,13.90
2023-01-13T21:46:12.746Z,18.05
2023-01-13T21:49:15.794Z,16.10
2023-01-13T21:52:18.547Z,17.17
2023-01-13T21:55:29.487Z,15.27
2023-01-13T21:58:32.096Z,12.55
2023-01-13T22:01:35.108Z,14.90
2023-01-13T22:04:39.693Z,15.48
2023-01-13T22:07:42.378Z,15.15
2023-01-13T22:11:00.100Z,13.23
2023-01-13T22:14:06.551Z,11.75
2023-01-13T22:17:09.370Z,12.63
2023-01-13T22:20:13.439Z,13.27
2023-01-13T22:23:17.168Z,13.88
2023-01-13T22:26:19.762Z,13.20
2023-01-13T22:29:22.509Z,14.38
2023-01-13T22:32:25.097Z,15.93
2023-01-13T22:35:27.949Z,15.40
2023-01-13T22:38:31.038Z,12.68
2023-01-13T22:41:34.092Z,13.63
2023-01-13T22:44:36.847Z,12.63
2023-01-13T22:47:39.788Z,13.75
2023-01-13T22:50:42.550Z,11.60
2023-01-13T22:53:45.435Z,12.23
2023-01-13T22:56:47.953Z,11.13
2023-01-13T22:59:50.878Z,11.80
2023-01-13T23:02:53.391Z,12.15
2023-01-13T23:05:57.130Z,10.35
2023-01-13T23:09:00.414Z,12.43
2023-01-13T23:12:03.735Z,10.60
2023-01-13T23:15:06.531Z,12.57
2023-01-13T23:18:09.327Z,12.93
2023-01-13T23:21:14.963Z,10.57
2023-01-13T23:24:18.095Z,9.68
2023-01-13T23:27:20.788Z,9.77
2023-01-13T23:30:24.097Z,9.05
2023-01-13T23:33:27.030Z,9.48
2023-01-13T23:36:30.132Z,8.60
2023-01-13T23:39:34.481Z,9.82
2023-01-13T23:42:37.312Z,9.70
2023-01-13T23:45:40.109Z,9.25
2023-01-13T23:48:43.007Z,10.82
2023-01-13T23:51:45.605Z,10.18
2023-01-13T23:54:48.417Z,9.48
2023-01-13T23:57:50.963Z,9.70
